Tiempo atmosférico en la estación meteorológica de Torrelavega, Sierrapando, Cantabria (100 m.)



Fecha
DESCASC
Temp. máxima en grados centígrados (hora)
DESCASC
Temp. mínima en grados centígrados (hora)
DESCASC
Temp. media en grados centígrados
DESCASC
Racha de viento máxima en m/sg (hora)
DESCASC
Velocidad máxima media en intervalos de 10 minutos(hora)
DESCASC
Precipitaciones diarias en mm
DESCASC
Precipitaciones de 00:00 a 06:00 en mm
DESCASC
Precipitaciones de 06:00 a 12:00 en mm
DESCASC
Precipitaciones de 12:00 a 18:00 en mm
DESCASC
Precipitaciones de 18:00 a 24:00 en mm
DESCASC
10-11-2019 11.5 (16:00) 7.1 (00:00) 9.3 20 (10:50) 12.22 (10:50) 36.6 7.8 14.6 8.4 5.8
09-11-2019 14.3 (14:20) 8.6 (00:00) 11.5 22.78 (15:00) 13.33 (15:00) 24.8 2 1.6 2.8 18.4
08-11-2019 11.8 (14:00) 7.2 (00:00) 9.5 22.5 (13:00) 14.17 (15:30) 32.6 3.4 11.6 12.8 4.8
07-11-2019 -- (--) -- (--) -- -- (--) -- (--) -- 8.8 2.4 -- 1.2
06-11-2019 17.4 (14:30) 10.5 (00:00) 13.9 16.94 (23:40) 9.17 (23:40) 11.6 4.6 0.2 0 6.8
05-11-2019 13.6 (20:30) 9.2 (00:00) 11.4 18.33 (13:40) 11.11 (16:50) 38.8 0 15.6 14 9.2
04-11-2019 16 (00:20) 9.4 (00:00) 12.7 17.78 (08:40) 11.39 (08:50) 16.4 0 15.2 0.2 1
03-11-2019 17.1 (14:20) 10.8 (00:00) 14 32.22 (03:20) 20.28 (04:30) 8.2 5.4 1 0 1.8
02-11-2019 17.3 (12:30) 13.7 (00:00) 15.5 10 (01:30) 5.83 (01:40) 4.6 0.2 4.4 0 0
01-11-2019 20.3 (14:10) 15.9 (00:00) 18.1 6.11 (03:10) 3.89 (07:10) 3.2 1.4 0.6 0.8 0.4
31-10-2019 20.4 (13:40) 16 (02:10) 18.2 6.39 (04:40) 4.72 (04:20) 2.6 1.8 0.8 0 0
30-10-2019 22.5 (15:20) 13.3 (00:00) 17.9 7.5 (20:40) 5 (20:40) 1.8 0 0 0 1.8
29-10-2019 21.9 (13:10) 12.3 (00:00) 17.1 5.83 (03:30) 4.44 (22:50) 0 0 0 0 0
28-10-2019 23 (12:20) 14 (00:00) 18.5 6.39 (00:10) 4.44 (06:20) 0 0 0 0 0
27-10-2019 23.5 (12:20) 13.2 (00:00) 18.3 6.39 (13:50) 4.72 (23:59) 0 0 0 0 0
26-10-2019 27.6 (15:50) 11.2 (00:00) 19.4 7.5 (16:50) 3.89 (06:20) 0 0 0 0 0
25-10-2019 20.5 (14:20) 11.7 (00:00) 16.1 6.11 (04:20) 4.17 (03:00) 0 0 0 0 0
24-10-2019 18.8 (14:30) 10.6 (00:00) 14.7 11.94 (15:50) 7.5 (15:20) 9.6 7 2.2 0.4 0
23-10-2019 14.6 (11:20) 10.3 (00:00) 12.5 18.33 (17:50) 10.83 (16:20) 77 30.2 18.8 10 18
22-10-2019 12.5 (16:10) 6.9 (00:00) 9.7 5.56 (20:20) 4.17 (23:40) 11.4 0 0 1.6 9.8
21-10-2019 17.1 (13:40) 8.2 (00:00) 12.7 6.11 (12:20) 4.44 (00:20) 0 0 0 0 0
20-10-2019 12.3 (03:10) 9.8 (00:00) 11.1 9.17 (06:50) 6.11 (09:40) 40.6 21.2 9.6 5 4.8
19-10-2019 15.5 (12:40) 12.2 (00:00) 13.8 6.67 (18:30) 5 (18:20) 21.2 0.6 1.2 3 16.4
18-10-2019 19.4 (13:30) 14.2 (00:00) 16.8 5.83 (16:40) 4.44 (16:40) 0.2 0 0 0 0.2
17-10-2019 22 (12:50) 15.2 (00:00) 18.6 11.94 (01:00) 7.78 (01:00) 2.4 2.4 0 0 0
16-10-2019 23.7 (14:20) 16.3 (00:00) 20 14.44 (12:10) 8.61 (12:00) 1 0 0.2 0 0.8
15-10-2019 21 (14:20) 10.3 (00:00) 15.7 10.56 (19:30) 6.11 (19:40) 0 0 0 0 0
14-10-2019 21.8 (03:50) 11.7 (00:00) 16.7 15 (05:20) 9.72 (05:30) 5.4 0 1.6 0.4 3.4

Gráficas

Temp. máximas Temp. mínimas Temp. medias Precipitaciones Rachas de viento máximas Velocidades máximas media en intervalos de 10 minutos

Datos horarios

Fecha y hora oficial Temperatura (ºC) Velocidad del viento (km/h) Dirección del viento Racha (km/h) Dirección de racha Precipitación (mm) Presión (hPa) Tendencia (hPa) Humedad (%)
2019-11-12 23:00:00 9.9 7 Sudoeste 15 Sudeste 1.2 -- -- 95
2019-11-12 22:00:00 10 8 Sudeste 13 Sudeste 0.6 -- -- 94
2019-11-12 21:00:00 10.3 5 Sudeste 10 Sur 0 -- -- 94
2019-11-12 20:00:00 10.3 6 Este 21 Sudeste 0.8 -- -- 94
2019-11-12 19:00:00 10.6 14 Este 24 Este 0.4 -- -- 93
2019-11-12 18:00:00 10.9 11 Sudeste 15 Sudeste 0.6 -- -- 91
2019-11-12 17:00:00 11.9 5 Este 6 Este 0.8 -- -- 83
2019-11-12 16:00:00 13.3 0 Calma 12 Oeste 0 -- -- 74
2019-11-12 15:00:00 13.6 9 Noroeste 17 Noroeste 0 -- -- 70
2019-11-12 14:00:00 14.2 11 Oeste 23 Oeste 0 -- -- 68
2019-11-12 13:00:00 14.6 6 Oeste 14 Sudoeste 0 -- -- 67
2019-11-12 12:00:00 12 8 Oeste 15 Oeste 0 -- -- 74
2019-11-12 11:00:00 11.7 9 Oeste 20 Oeste 0 -- -- 73
2019-11-12 10:00:00 11.2 13 Oeste 25 Oeste 0 -- -- 74
2019-11-12 09:00:00 10.4 17 Oeste 27 Oeste 0 -- -- 75
2019-11-12 08:00:00 10 15 Oeste 27 Oeste 0 -- -- 77
2019-11-12 07:00:00 10.4 17 Oeste 28 Oeste 0 -- -- 76
2019-11-12 06:00:00 10.4 14 Oeste 26 Oeste 0 -- -- 77
2019-11-12 05:00:00 9.9 12 Oeste 21 Oeste 0 -- -- 79
2019-11-12 04:00:00 10.1 12 Oeste 23 Oeste 0 -- -- 79
2019-11-12 03:00:00 10.1 16 Oeste 29 Sudoeste 0 -- -- 79
2019-11-12 02:00:00 9.5 17 Oeste 27 Oeste 0 -- -- 86
2019-11-12 01:00:00 9.2 18 Oeste 28 Oeste 0.4 -- -- 92
2019-11-12 00:00:00 9.2 13 Oeste 36 Oeste 1 -- -- 89
2019-11-11 23:00:00 9.8 8 Oeste 25 Oeste 0 -- -- 84
2019-11-11 22:00:00 9.6 11 Sudoeste 18 Oeste 0 -- -- 87
2019-11-11 21:00:00 10.1 14 Oeste 29 Oeste 0.2 -- -- 88
2019-11-11 20:00:00 10.3 11 Sudoeste 25 Noroeste 0 -- -- 86
2019-11-11 19:00:00 11.5 16 Noroeste 24 Noroeste 0 -- -- 75
2019-11-11 18:00:00 11.5 13 Noroeste 39 Norte 0 -- -- 71
2019-11-11 17:00:00 11.7 23 Norte 44 Norte 0.2 -- -- 79
2019-11-11 16:00:00 12.4 23 Noroeste 38 Norte 0 -- -- 70
2019-11-11 15:00:00 11.6 17 Noroeste 30 Noroeste 0.6 -- -- 87
2019-11-11 14:00:00 11.9 26 Noroeste 49 Norte 0 -- -- 79
2019-11-11 13:00:00 12.7 21 Norte 52 Norte 0 -- -- 75
2019-11-11 12:00:00 12.1 26 Norte 64 Norte 0.6 -- -- 92
2019-11-11 11:00:00 12.6 39 Noroeste 67 Noroeste 0 -- -- 93
2019-11-11 10:00:00 12.8 38 Noroeste 69 Noroeste 0.6 -- -- 97
2019-11-11 09:00:00 8.9 10 Sudoeste 17 Sudoeste 0.4 -- -- 95
2019-11-11 08:00:00 9.1 12 Sudoeste 17 Sudoeste 0 -- -- 92
2019-11-11 07:00:00 9.1 7 Sur 17 Sudoeste 0 -- -- 91
2019-11-11 06:00:00 9 11 Sudoeste 19 Sudoeste 0 -- -- 90
2019-11-11 05:00:00 8.9 8 Sudoeste 13 Sudoeste 0 -- -- 90
2019-11-11 04:00:00 9 10 Sur 15 Sudoeste 0 -- -- 89
2019-11-11 03:00:00 9 13 Sudoeste 17 Sudoeste 0 -- -- 88
2019-11-11 02:00:00 9.2 12 Sudoeste 18 Sudoeste 0 -- -- 87
2019-11-11 01:00:00 8.9 10 Sudoeste 16 Oeste 0 -- -- 88
2019-11-11 00:00:00 9 10 Sudoeste 18 Oeste 0.2 -- -- 90
2019-11-10 23:00:00 8.7 9 Sudoeste 17 Oeste 0.8 -- -- 93
2019-11-10 22:00:00 8.4 13 Sudoeste 22 Sudoeste 2.4 -- -- 95
2019-11-10 21:00:00 8.5 16 Sudoeste 22 Oeste 2.4 -- -- 94
2019-11-10 20:00:00 8.7 14 Oeste 23 Sudoeste 0 -- -- 90
2019-11-10 19:00:00 10.2 13 Oeste 39 Noroeste 0 -- -- 79
2019-11-10 18:00:00 9.6 31 Noroeste 48 Noroeste 4 -- -- 80
2019-11-10 17:00:00 10.8 21 Noroeste 54 Norte 0.4 -- -- 74
2019-11-10 16:00:00 11.5 26 Noroeste 50 Noroeste 0 -- -- 75
2019-11-10 15:00:00 11.3 18 Noroeste 31 Noroeste 0.6 -- -- 84
2019-11-10 14:00:00 9 9 Oeste 52 Noroeste 2.6 -- -- 96
2019-11-10 13:00:00 9.4 16 Norte 71 Norte 0.8 -- -- 90
2019-11-10 12:00:00 9 25 Norte 67 Norte 0.8 -- -- 85
2019-11-10 11:00:00 9.3 34 Norte 72 Norte 1.2 -- -- 88
2019-11-10 10:00:00 8.1 23 Noroeste 57 Norte 1 -- -- 92
2019-11-10 09:00:00 8.6 27 Oeste 58 Noroeste 1.6 -- -- 87
2019-11-10 08:00:00 8.4 33 Noroeste 53 Noroeste 2.8 -- -- 90
2019-11-10 07:00:00 7.7 17 Oeste 46 Oeste 7.2 -- -- 93
2019-11-10 06:00:00 7.8 23 Oeste 41 Oeste 2 -- -- 90
2019-11-10 05:00:00 8.2 20 Oeste 50 Oeste 0.6 -- -- 87
2019-11-10 04:00:00 7.9 20 Oeste 40 Oeste 0.8 -- -- 89
2019-11-10 03:00:00 7.4 29 Oeste 47 Oeste 3 -- -- 89
2019-11-10 02:00:00 7.7 12 Sudoeste 44 Noroeste 1.4 -- -- 89
2019-11-10 01:00:00 9.4 18 Oeste 39 Oeste 0 -- -- 83
2019-11-10 00:00:00 9.7 21 Oeste 42 Oeste 0 -- -- 81
2019-11-09 23:00:00 9.7 18 Oeste 48 Noroeste 0 -- -- 84
2019-11-09 22:00:00 11.5 26 Noroeste 49 Noroeste 0 -- -- 72
2019-11-09 21:00:00 10.7 26 Noroeste 52 Noroeste 0.2 -- -- 82
2019-11-09 20:00:00 9.2 29 Noroeste 81 Oeste 13.8 -- -- 96
2019-11-09 19:00:00 10.2 23 Norte 71 Noroeste 4.4 -- -- 94
2019-11-09 18:00:00 12.4 23 Oeste 66 Noroeste 0.4 -- -- 78
2019-11-09 17:00:00 12.7 36 Noroeste 72 Noroeste 0.6 -- -- 81
2019-11-09 16:00:00 12.9 36 Noroeste 77 Oeste 1.6 -- -- 84
2019-11-09 15:00:00 13.8 48 Noroeste 82 Oeste 0.2 -- -- 83
2019-11-09 14:00:00 13.9 26 Noroeste 49 Oeste 0 -- -- 87
2019-11-09 13:00:00 12.6 13 Sudoeste 27 Sudoeste 0 -- -- 82
2019-11-09 12:00:00 10.3 12 Sur 23 Oeste 0.6 -- -- 91
2019-11-09 11:00:00 10.2 17 Sudoeste 26 Sudoeste 0.8 -- -- 84
2019-11-09 10:00:00 10.2 15 Sudoeste 24 Sudoeste 0.2 -- -- 81
2019-11-09 09:00:00 9.8 8 Sur 13 Sudoeste 0 -- -- 83
2019-11-09 08:00:00 9.9 7 Sudoeste 18 Sudoeste 0 -- -- 80
2019-11-09 07:00:00 10.1 12 Sudoeste 18 Sudoeste 0 -- -- 78
2019-11-09 06:00:00 9.9 12 Sudoeste 20 Sudoeste 0.2 -- -- 81
2019-11-09 05:00:00 9.7 15 Sudoeste 23 Sudoeste 0 -- -- 85
2019-11-09 04:00:00 9.5 13 Oeste 20 Oeste 0 -- -- 88
2019-11-09 03:00:00 9.1 12 Oeste 21 Oeste 0.2 -- -- 93
2019-11-09 02:00:00 8.6 14 Sudoeste 24 Oeste 0.6 -- -- 94
2019-11-09 01:00:00 9.1 15 Oeste 37 Oeste 1 -- -- 91
2019-11-09 00:00:00 8.7 14 Oeste 30 Oeste 2.4 -- -- 92
2019-11-08 23:00:00 9.3 15 Oeste 45 Oeste 0.6 -- -- 88
2019-11-08 22:00:00 9.5 19 Oeste 42 Noroeste 0.2 -- -- 86
2019-11-08 21:00:00 10.1 27 Oeste 47 Oeste 0 -- -- 78
2019-11-08 20:00:00 10.4 37 Oeste 57 Oeste 0.6 -- -- 80
2019-11-08 19:00:00 10.1 33 Oeste 58 Oeste 1 -- -- 80
2019-11-08 18:00:00 9.7 34 Oeste 74 Oeste 3.6 -- -- 85
2019-11-08 17:00:00 10.7 30 Noroeste 66 Oeste 1.8 -- -- 81
2019-11-08 16:00:00 11.4 37 Oeste 75 Oeste 0.8 -- -- 81
2019-11-08 15:00:00 10.7 36 Oeste 78 Noroeste 1.2 -- -- 82
2019-11-08 14:00:00 11.8 48 Noroeste 77 Oeste 1.4 -- -- 77
2019-11-08 13:00:00 10.6 40 Noroeste 81 Norte 4 -- -- 83
2019-11-08 12:00:00 9.2 37 Oeste 58 Oeste 4.4 -- -- 88
2019-11-08 11:00:00 9 30 Oeste 53 Oeste 1 -- -- 87
2019-11-08 10:00:00 8.5 26 Oeste 62 Oeste 2.2 -- -- 89
2019-11-08 09:00:00 8.6 30 Oeste 57 Oeste 2.6 -- -- 87
2019-11-08 08:00:00 8.2 21 Oeste 50 Oeste 1.2 -- -- 86
2019-11-08 07:00:00 8.6 31 Oeste 57 Oeste 0.2 -- -- 81
2019-11-08 06:00:00 8.6 27 Oeste 49 Oeste 0.2 -- -- 81
2019-11-08 05:00:00 8 28 Oeste 47 Oeste 0.8 -- -- 83
2019-11-08 04:00:00 7.7 22 Oeste 50 Oeste 0.2 -- -- 84
2019-11-08 03:00:00 7.2 21 Oeste 52 Oeste 1 -- -- 86
2019-11-08 02:00:00 7.4 22 Oeste 45 Oeste 0.4 -- -- 83
2019-11-08 01:00:00 7.4 21 Oeste 47 Oeste 0.8 -- -- 83
2019-11-08 00:00:00 7.9 27 Oeste 49 Oeste 0.4 -- -- 78
2019-11-07 23:00:00 7.5 24 Oeste 52 Oeste 0.8 -- -- 77
2019-11-07 22:00:00 8.4 16 Oeste 36 Noroeste 0 -- -- 69
2019-11-07 21:00:00 8.5 18 Oeste 57 Oeste 0 -- -- 66
2019-11-07 20:00:00 8.8 28 Oeste 51 Noroeste 0 -- -- 68
2019-11-07 19:00:00 8.7 24 Oeste 58 Noroeste 0 -- -- 71
2019-11-07 18:00:00 9.4 38 Noroeste 65 Noroeste 0 -- -- 77
2019-11-07 17:00:00 10.9 18 Noroeste 45 Oeste 0 -- -- 67
2019-11-07 16:00:00 11.8 24 Oeste 40 Oeste 0 -- -- 66
2019-11-07 15:00:00 9.9 23 Oeste -- -- -- -- -- 81
2019-11-07 14:00:00 -- -- -- -- -- -- -- -- --
2019-11-07 13:00:00 12 29 Noroeste 46 Noroeste 0 -- -- 69
2019-11-07 12:00:00 12.7 25 Oeste 46 Oeste 0 -- -- 62
2019-11-07 11:00:00 12.1 24 Oeste 38 Oeste 0 -- -- 69
2019-11-07 10:00:00 9.9 17 Oeste 39 Oeste 0 -- -- 77
2019-11-07 09:00:00 7.8 16 Oeste 71 Noroeste 1.2 -- -- 90
2019-11-07 08:00:00 8.7 31 Oeste 71 Noroeste 0.8 -- -- 85
2019-11-07 07:00:00 9.4 19 Oeste 70 Noroeste 0.4 -- -- 86
2019-11-07 06:00:00 10.5 24 Oeste 56 Noroeste 0 -- -- 78
2019-11-07 05:00:00 10.5 34 Oeste 57 Oeste 0.4 -- -- 86
2019-11-07 04:00:00 10.5 18 Oeste 51 Oeste 0.2 -- -- 92
2019-11-07 03:00:00 10.5 23 Oeste 42 Oeste 0.6 -- -- 93
2019-11-07 02:00:00 11.1 31 Oeste 57 Oeste 2 -- -- 94
2019-11-07 01:00:00 11.9 32 Oeste 56 Oeste 5.6 -- -- 95
2019-11-07 00:00:00 12.7 29 Noroeste 61 Oeste 4.2 -- -- 95
2019-11-06 23:00:00 12.2 11 Sudoeste 20 Oeste 1.6 -- -- 93
2019-11-06 22:00:00 12.1 9 Sudoeste 14 Sur 0.2 -- -- 91
2019-11-06 21:00:00 12.2 10 Sudoeste 17 Sudoeste 0.8 -- -- 89
2019-11-06 20:00:00 12.9 6 Sudoeste 13 Sudeste 0 -- -- 83
2019-11-06 19:00:00 13.3 9 Sudeste 19 Sudeste 0 -- -- 81
2019-11-06 18:00:00 14 5 Sudeste 12 Sur 0 -- -- 78
2019-11-06 17:00:00 14.6 8 Sudeste 10 Este 0 -- -- 75
2019-11-06 16:00:00 15.7 3 Noroeste 13 Noroeste 0 -- -- 63
2019-11-06 15:00:00 16.8 4 Oeste 15 Oeste 0 -- -- 62
2019-11-06 14:00:00 16.7 7 Sudoeste 14 Sudoeste 0 -- -- 65
2019-11-06 13:00:00 13.8 5 Sur 18 Sudoeste 0 -- -- 77
2019-11-06 12:00:00 12.4 12 Sudoeste 38 Oeste 0 -- -- 85
2019-11-06 11:00:00 12.7 12 Oeste 19 Oeste 0 -- -- 77
2019-11-06 10:00:00 12 12 Oeste 23 Sudoeste 0 -- -- 81
2019-11-06 09:00:00 11.1 12 Sudoeste 22 Sudoeste 0 -- -- 85
2019-11-06 08:00:00 10.6 11 Oeste 26 Oeste 0.2 -- -- 87
2019-11-06 07:00:00 10.5 14 Sudoeste 38 Oeste 0 -- -- 87
2019-11-06 06:00:00 10.7 19 Oeste 31 Oeste 0.4 -- -- 90
2019-11-06 05:00:00 10.7 17 Oeste 28 Oeste 0 -- -- 92
2019-11-06 04:00:00 10.7 15 Oeste 30 Oeste 1.2 -- -- 94
2019-11-06 03:00:00 10.9 20 Oeste 39 Oeste 0.6 -- -- 94
2019-11-06 02:00:00 11.1 25 Oeste 45 Oeste 0.6 -- -- 92
2019-11-06 01:00:00 11.9 24 Oeste 49 Noroeste 1.8 -- -- 86
2019-11-06 00:00:00 13.6 36 Noroeste 56 Noroeste 0 -- -- 76
2019-11-05 23:00:00 13 31 Noroeste 56 Noroeste 2.6 -- -- 79
2019-11-05 22:00:00 13.1 34 Noroeste 53 Noroeste 2.2 -- -- 82
2019-11-05 21:00:00 13.4 30 Noroeste 57 Noroeste 0 -- -- 82
2019-11-05 20:00:00 13.3 33 Noroeste 63 Noroeste 0 -- -- 80
2019-11-05 19:00:00 12.8 27 Noroeste 65 Noroeste 4.4 -- -- 85
2019-11-05 18:00:00 12.4 33 Noroeste 59 Norte 4.2 -- -- 89
2019-11-05 17:00:00 13.4 39 Noroeste 61 Oeste 0 -- -- 79
2019-11-05 16:00:00 11.9 30 Noroeste 61 Oeste 1.2 -- -- 87
2019-11-05 15:00:00 13.3 32 Oeste 62 Oeste 2 -- -- 81
2019-11-05 14:00:00 12.3 32 Oeste 66 Oeste 1.2 -- -- 86
2019-11-05 13:00:00 11.1 9 Noroeste 56 Oeste 5.4 -- -- 91
2019-11-05 12:00:00 12 23 Oeste 42 Oeste 3.6 -- -- 90
2019-11-05 11:00:00 9.7 22 Sudoeste 42 Oeste 6 -- -- 94
2019-11-05 10:00:00 9.9 23 Oeste 64 Oeste 2.4 -- -- 91
2019-11-05 09:00:00 10.9 23 Oeste 42 Oeste 1.4 -- -- 83
2019-11-05 08:00:00 10.7 21 Oeste 40 Noroeste 2.2 -- -- 81
2019-11-05 07:00:00 11.3 17 Sudoeste 24 Oeste 0 -- -- 70
2019-11-05 06:00:00 10.7 15 Sudoeste 24 Sudoeste 0 -- -- 74
2019-11-05 05:00:00 10.5 13 Sudoeste 24 Oeste 0 -- -- 75
2019-11-05 04:00:00 10.4 12 Sudoeste 24 Oeste 0 -- -- 79
2019-11-05 03:00:00 9.8 13 Sudoeste 22 Sudoeste 0 -- -- 86
2019-11-05 02:00:00 9.3 5 Sur 13 Sudeste 0 -- -- 90
2019-11-05 01:00:00 9.2 8 Sur 14 Sudeste 0 -- -- 91
2019-11-05 00:00:00 9.4 9 Sur 23 Sudeste 0 -- -- 89
2019-11-04 23:00:00 9.6 8 Sudoeste 17 Sudeste 0 -- -- 90
2019-11-04 22:00:00 10.6 12 Sudoeste 19 Sudoeste 0 -- -- 84
2019-11-04 21:00:00 10.6 10 Sudoeste 19 Oeste 0 -- -- 80
2019-11-04 20:00:00 11.2 13 Sudoeste 25 Sudoeste 0 -- -- 83
2019-11-04 19:00:00 11.7 14 Sudoeste 23 Sudoeste 1 -- -- 87
2019-11-04 18:00:00 12.5 10 Sudoeste 28 Oeste 0 -- -- 82
2019-11-04 17:00:00 13.1 13 Oeste 33 Noroeste 0 -- -- 78
2019-11-04 16:00:00 13.6 30 Oeste 49 Noroeste 0 -- -- 74
2019-11-04 15:00:00 13.5 19 Oeste 54 Noroeste 0 -- -- 83
2019-11-04 14:00:00 13.5 23 Noroeste 57 Oeste 0 -- -- 85
2019-11-04 13:00:00 13.9 19 Oeste 57 Oeste 0.2 -- -- 87
2019-11-04 12:00:00 13.3 24 Noroeste 45 Oeste 2 -- -- 92
2019-11-04 11:00:00 13.3 15 Oeste 51 Oeste 3 -- -- 95
2019-11-04 10:00:00 13.2 24 Oeste 63 Noroeste 0.8 -- -- 94
2019-11-04 09:00:00 13.2 36 Noroeste 64 Noroeste 8.4 -- -- 96
2019-11-04 08:00:00 14.4 14 Oeste 41 Oeste 1 -- -- 93
2019-11-04 07:00:00 14.6 29 Noroeste 45 Noroeste 0 -- -- 92
2019-11-04 06:00:00 13.3 5 Sur 17 Sudeste 0 -- -- 90
2019-11-04 05:00:00 13.6 9 Sur 13 Sudoeste 0 -- -- 87
2019-11-04 04:00:00 13.6 6 Sudoeste 12 Oeste 0 -- -- 87
2019-11-04 03:00:00 15.1 6 Este 14 Sudeste 0 -- -- 80
2019-11-04 02:00:00 15.5 3 Sudoeste 8 Oeste 0 -- -- 78
2019-11-04 01:00:00 16 3 Sudeste 9 Sudeste 0 -- -- 75
2019-11-04 00:00:00 15.8 2 Este 11 Sudeste 0 -- -- 77
2019-11-03 23:00:00 16.1 8 Sur 20 Sudoeste 0.2 -- -- 76
2019-11-03 22:00:00 14.8 9 Sudoeste 23 Sudoeste 0 -- -- 83
2019-11-03 21:00:00 13.7 10 Sur 22 Sur 0.4 -- -- 89
2019-11-03 20:00:00 13.4 15 Sur 22 Sudeste 1 -- -- 87
2019-11-03 19:00:00 14.8 11 Sudeste 19 Sudeste 0.2 -- -- 77
2019-11-03 18:00:00 15.6 10 Sudeste 18 Sudeste 0 -- -- 70
2019-11-03 17:00:00 16.2 4 Sudeste 17 Oeste 0 -- -- 66
2019-11-03 16:00:00 16.5 13 Oeste 40 Oeste 0 -- -- 66
2019-11-03 15:00:00 16.6 25 Noroeste 50 Oeste 0 -- -- 61
2019-11-03 14:00:00 16.8 28 Noroeste 56 Noroeste 0 -- -- 56
2019-11-03 13:00:00 16 33 Noroeste 63 Oeste 0 -- -- 57
2019-11-03 12:00:00 15.5 35 Oeste 70 Noroeste 0 -- -- 55
2019-11-03 11:00:00 13.9 37 Oeste 68 Noroeste 0 -- -- 65
2019-11-03 10:00:00 13.3 37 Oeste 69 Oeste 0 -- -- 63
2019-11-03 09:00:00 11.1 36 Oeste 66 Oeste 0.4 -- -- 79
2019-11-03 08:00:00 11.1 28 Oeste 77 Noroeste 0 -- -- 76
2019-11-03 07:00:00 11.7 38 Oeste 91 Oeste 0.6 -- -- 72
2019-11-03 06:00:00 11.9 44 Oeste 98 Oeste 0.6 -- -- 76
2019-11-03 05:00:00 12.4 67 Oeste 114 Oeste 0.2 -- -- 77
2019-11-03 04:00:00 13.1 55 Oeste 116 Noroeste 3.4 -- -- 86
2019-11-03 03:00:00 13 61 Noroeste 108 Noroeste 1.2 -- -- 91
2019-11-03 02:00:00 14.2 9 Sudoeste 22 Sudoeste 0 -- -- 88
2019-11-03 01:00:00 13.5 9 Sur 16 Sur 0 -- -- 96
2019-11-03 00:00:00 13.8 4 Sur 11 Sudeste 0 -- -- 95
2019-11-02 23:00:00 14.1 8 Sudeste 17 Sudeste 0 -- -- 95
2019-11-02 22:00:00 14.1 7 Sur 12 Sur 0 -- -- 95
2019-11-02 21:00:00 14.3 5 Noroeste 10 Sudoeste 0 -- -- 94
2019-11-02 20:00:00 14.7 5 Oeste 19 Sudeste 0 -- -- 93
2019-11-02 19:00:00 15 13 Sudeste 18 Sudeste 0 -- -- 92
2019-11-02 18:00:00 15.5 5 Sur 10 Sur 0 -- -- 91
2019-11-02 17:00:00 15.9 3 Nordeste 14 Sudeste 0 -- -- 90
2019-11-02 16:00:00 16.4 4 Sudeste 9 Noroeste 0 -- -- 87
2019-11-02 15:00:00 16.7 5 Noroeste 18 Noroeste 0 -- -- 85
2019-11-02 14:00:00 16.4 13 Noroeste 22 Noroeste 0 -- -- 86
2019-11-02 13:00:00 16.9 6 Norte 14 Norte 0 -- -- 88
2019-11-02 12:00:00 16.7 4 Oeste 25 Oeste 0 -- -- 92
2019-11-02 11:00:00 15.8 10 Oeste 33 Oeste 0 -- -- 92
2019-11-02 10:00:00 15.3 16 Noroeste 28 Noroeste 1 -- -- 94
2019-11-02 09:00:00 15.6 17 Noroeste 30 Noroeste 1.2 -- -- 94
2019-11-02 08:00:00 15.6 16 Noroeste 24 Noroeste 0.2 -- -- 96
2019-11-02 07:00:00 15.6 14 Oeste 33 Oeste 2 -- -- 96
2019-11-02 06:00:00 15.9 6 Oeste 13 Oeste 0 -- -- 97
2019-11-02 05:00:00 15.7 4 Oeste 10 Sudoeste 0.2 -- -- 97
2019-11-02 04:00:00 15.9 8 Sur 14 Oeste 0 -- -- 96
2019-11-02 03:00:00 16.1 13 Oeste 31 Oeste 0 -- -- 96
2019-11-02 02:00:00 16.3 21 Noroeste 36 Noroeste 0 -- -- 96
2019-11-02 01:00:00 16 7 Sudoeste 16 Sudoeste 0 -- -- 96
2019-11-02 00:00:00 16.1 11 Sudoeste 15 Oeste 0 -- -- 96
2019-11-01 23:00:00 16.3 4 Sudoeste 17 Sur 0 -- -- 96
2019-11-01 22:00:00 16.4 6 Sudeste 17 Sudeste 0.4 -- -- 94
2019-11-01 21:00:00 17.6 8 Sudoeste 9 Sur 0 -- -- 91
2019-11-01 20:00:00 17.6 8 Sudoeste 11 Sudoeste 0 -- -- 91
2019-11-01 19:00:00 18.5 4 Norte 8 Sudeste 0 -- -- 87
2019-11-01 18:00:00 19.4 5 Sudeste 8 Sur 0 -- -- 86
2019-11-01 17:00:00 19.7 5 Sudeste 21 Sudeste 0 -- -- 86
2019-11-01 16:00:00 19.3 6 Sudeste 17 Sur 0.2 -- -- 92
2019-11-01 15:00:00 19.3 7 Noroeste 19 Noroeste 0.6 -- -- 90
2019-11-01 14:00:00 20.2 5 Sudoeste 8 Oeste 0 -- -- 88
2019-11-01 13:00:00 20 4 Este 12 Sudoeste 0 -- -- 85
2019-11-01 12:00:00 20.1 0 Calma 7 Sudoeste 0 -- -- 84
2019-11-01 11:00:00 19.1 4 Sudoeste 17 Sudeste 0 -- -- 87
2019-11-01 10:00:00 18 9 Sudeste 18 Sudeste 0 -- -- 90
2019-11-01 09:00:00 16.7 10 Sudeste 15 Sudeste 0 -- -- 94
2019-11-01 08:00:00 16.4 10 Sur 22 Sudoeste 0.6 -- -- 95
2019-11-01 07:00:00 16.1 14 Sudoeste 21 Sudoeste 0 -- -- 94
2019-11-01 06:00:00 16.5 7 Sudoeste 14 Sudoeste 0 -- -- 93
2019-11-01 05:00:00 16.7 10 Sur 14 Sudoeste 0 -- -- 93
2019-11-01 04:00:00 16.4 6 Sudoeste 22 Sudeste 0 -- -- 95
2019-11-01 03:00:00 16.1 12 Sudeste 21 Sudeste 0 -- -- 97
2019-11-01 02:00:00 15.9 9 Sur 16 Oeste 1.4 -- -- 96
2019-11-01 01:00:00 16.1 5 Sur 15 Sudeste 0 -- -- 95
2019-11-01 00:00:00 16.2 12 Sudeste 17 Sudeste 0 -- -- 95
2019-10-31 23:00:00 16.5 7 Sudeste 12 Sudeste 0 -- -- 94
2019-10-31 22:00:00 16.5 8 Sur 10 Sur 0 -- -- 92
2019-10-31 21:00:00 16.8 5 Este 13 Sudeste 0 -- -- 90
2019-10-31 20:00:00 16.8 6 Sudeste 11 Sudeste 0 -- -- 90
2019-10-31 19:00:00 17 8 Sudeste 12 Sudeste 0 -- -- 87
2019-10-31 18:00:00 16.8 7 Nordeste 10 Nordeste 0 -- -- 86
2019-10-31 17:00:00 18.2 10 Nordeste 14 Norte 0 -- -- 81
2019-10-31 16:00:00 19.2 12 Nordeste 15 Norte 0 -- -- 78
2019-10-31 15:00:00 20 6 Norte 14 Nordeste 0 -- -- 78
2019-10-31 14:00:00 19.9 8 Noroeste 12 Noroeste 0 -- -- 79
2019-10-31 13:00:00 19.1 5 Norte 12 Norte 0 -- -- 83
2019-10-31 12:00:00 18.7 8 Noroeste 13 Noroeste 0 -- -- 85
2019-10-31 11:00:00 18 4 Sudoeste 11 Oeste 0 -- -- 92
2019-10-31 10:00:00 16.8 9 Sudoeste 14 Sudoeste 0 -- -- 96
2019-10-31 09:00:00 16.2 9 Sudoeste 14 Oeste 0 -- -- 97
2019-10-31 08:00:00 16.1 11 Oeste 19 Noroeste 0.4 -- -- 96
2019-10-31 07:00:00 16.3 9 Oeste 18 Noroeste 0.4 -- -- 95
2019-10-31 06:00:00 16.4 9 Noroeste 15 Noroeste 0 -- -- 95
2019-10-31 05:00:00 16.4 12 Noroeste 23 Noroeste 0 -- -- 96
2019-10-31 04:00:00 16.5 13 Noroeste 19 Noroeste 0.2 -- -- 97
2019-10-31 03:00:00 16.4 9 Noroeste 18 Noroeste 0.6 -- -- 97
2019-10-31 02:00:00 16.1 6 Sudoeste 12 Oeste 1 -- -- 96
2019-10-31 01:00:00 16.4 6 Oeste 13 Sudoeste 0 -- -- 95
2019-10-31 00:00:00 16.2 8 Sudoeste 17 Oeste 0 -- -- 95
2019-10-30 23:00:00 16.3 6 Sudoeste 19 Sudoeste 0.4 -- -- 94
2019-10-30 22:00:00 17.1 8 Oeste 20 Oeste 1.4 -- -- 92
2019-10-30 21:00:00 17.8 15 Oeste 27 Noroeste 0 -- -- 86
2019-10-30 20:00:00 18.6 9 Oeste 20 Oeste 0 -- -- 76
2019-10-30 19:00:00 19.4 5 Noroeste 12 Noroeste 0 -- -- 73
2019-10-30 18:00:00 20.2 4 Norte 18 Sudoeste 0 -- -- 70
2019-10-30 17:00:00 21.4 11 Sudoeste 20 Sudoeste 0 -- -- 64
2019-10-30 16:00:00 22.3 12 Sur 18 Sur 0 -- -- 60
2019-10-30 15:00:00 22 10 Sur 19 Sudeste 0 -- -- 65
2019-10-30 14:00:00 20.9 12 Sudeste 18 Sudeste 0 -- -- 69
2019-10-30 13:00:00 20.9 10 Sudeste 17 Sudeste 0 -- -- 70
2019-10-30 12:00:00 21.9 8 Sur 16 Sudeste 0 -- -- 66
2019-10-30 11:00:00 19.4 8 Sur 11 Sudeste 0 -- -- 72
2019-10-30 10:00:00 17.1 9 Sudeste 14 Sur 0 -- -- 77
2019-10-30 09:00:00 15.3 9 Sur 16 Sudeste 0 -- -- 80
2019-10-30 08:00:00 14.5 9 Sudoeste 14 Sudeste 0 -- -- 81
2019-10-30 07:00:00 14.6 9 Sudeste 12 Sudeste 0 -- -- 80
2019-10-30 06:00:00 13.9 5 Sudoeste 12 Sur 0 -- -- 85
2019-10-30 05:00:00 13.8 8 Sur 13 Sudoeste 0 -- -- 89
2019-10-30 04:00:00 13.6 6 Sudoeste 10 Sur 0 -- -- 89
2019-10-30 03:00:00 14.3 9 Sur 14 Sudeste 0 -- -- 89
2019-10-30 02:00:00 14.2 8 Sur 20 Sudeste 0 -- -- 92
2019-10-30 01:00:00 14.1 15 Sudeste 22 Sudeste 0 -- -- 94
2019-10-30 00:00:00 14.3 15 Sudeste 19 Sudeste 0 -- -- 94
2019-10-29 23:00:00 14.5 12 Sudeste 20 Sudeste 0 -- -- 94
2019-10-29 22:00:00 15.1 7 Sudoeste 9 Sudoeste 0 -- -- 92
2019-10-29 21:00:00 16 4 Oeste 5 Oeste 0 -- -- 92
2019-10-29 20:00:00 16.8 3 Este 8 Sudeste 0 -- -- 88
2019-10-29 19:00:00 17.1 3 Sudeste 5 Este 0 -- -- 88
2019-10-29 18:00:00 17.9 4 Nordeste 7 Norte 0 -- -- 87
2019-10-29 17:00:00 19.1 7 Nordeste 15 Este 0 -- -- 79
2019-10-29 16:00:00 20.5 11 Este 16 Este 0 -- -- 71
2019-10-29 15:00:00 21 8 Nordeste 13 Nordeste 0 -- -- 71
2019-10-29 14:00:00 20.6 9 Nordeste 16 Nordeste 0 -- -- 71
2019-10-29 13:00:00 21.6 2 Sudeste 10 Norte 0 -- -- 70
2019-10-29 12:00:00 21 3 Noroeste 14 Oeste 0 -- -- 73
2019-10-29 11:00:00 19.1 4 Oeste 12 Oeste 0 -- -- 78
2019-10-29 10:00:00 16.4 8 Oeste 15 Sudoeste 0 -- -- 84
2019-10-29 09:00:00 13.9 10 Sudoeste 19 Sudoeste 0 -- -- 88
2019-10-29 08:00:00 12.6 6 Oeste 14 Sudeste 0 -- -- 91
2019-10-29 07:00:00 13.2 10 Sur 16 Sudeste 0 -- -- 91
2019-10-29 06:00:00 12.4 8 Sur 18 Sudoeste 0 -- -- 91
2019-10-29 05:00:00 13.2 8 Sur 14 Sudoeste 0 -- -- 90
2019-10-29 04:00:00 12.9 13 Sudoeste 21 Sudeste 0 -- -- 91
2019-10-29 03:00:00 12.9 7 Sur 15 Sudeste 0 -- -- 91
2019-10-29 02:00:00 13.4 12 Sudeste 17 Sudeste 0 -- -- 91
2019-10-29 01:00:00 13.6 9 Sudoeste 12 Sudoeste 0 -- -- 91
2019-10-29 00:00:00 14 8 Oeste 10 Oeste 0 -- -- 89
2019-10-28 23:00:00 14.5 7 Sudoeste 15 Sudoeste 0 -- -- 88
2019-10-28 22:00:00 14.8 12 Sudoeste 15 Sudoeste 0 -- -- 87
2019-10-28 21:00:00 15.6 9 Oeste 10 Oeste 0 -- -- 84
2019-10-28 20:00:00 16.6 6 Sur 10 Sur 0 -- -- 78
2019-10-28 19:00:00 17.3 6 Sur 11 Sur 0 -- -- 75
2019-10-28 18:00:00 18.3 6 Sudeste 9 Sudeste 0 -- -- 72
2019-10-28 17:00:00 19.2 0 Calma 17 Noroeste 0 -- -- 69
2019-10-28 16:00:00 20.1 12 Noroeste 20 Norte 0 -- -- 62
2019-10-28 15:00:00 20.3 7 Nordeste 12 Nordeste 0 -- -- 67
2019-10-28 14:00:00 21.6 8 Norte 13 Nordeste 0 -- -- 63
2019-10-28 13:00:00 21.8 8 Nordeste 12 Nordeste 0 -- -- 63
2019-10-28 12:00:00 22.6 4 Nordeste 8 Oeste 0 -- -- 62
2019-10-28 11:00:00 21 3 Sur 10 Sudoeste 0 -- -- 62
2019-10-28 10:00:00 16.8 5 Sudoeste 13 Oeste 0 -- -- 79
2019-10-28 09:00:00 14.6 0 Calma 11 Oeste 0 -- -- 81
2019-10-28 08:00:00 14.5 5 Oeste 10 Oeste 0 -- -- 80
2019-10-28 07:00:00 14.3 5 Noroeste 21 Sudoeste 0 -- -- 84
2019-10-28 06:00:00 14.2 8 Oeste 12 Sudoeste 0 -- -- 88
2019-10-28 05:00:00 14.5 4 Noroeste 17 Sudoeste 0 -- -- 89
2019-10-28 04:00:00 14.8 8 Sudoeste 12 Sudoeste 0 -- -- 87
2019-10-28 03:00:00 14.5 8 Oeste 12 Oeste 0 -- -- 89
2019-10-28 02:00:00 15.3 3 Sur 13 Sudoeste 0 -- -- 88
2019-10-28 01:00:00 15.7 6 Sur 23 Sudeste 0 -- -- 86
2019-10-28 00:00:00 15.8 17 Sudeste 22 Sudeste 0 -- -- 87
2019-10-27 23:00:00 15.8 8 Sudoeste 19 Sudeste 0 -- -- 90
2019-10-27 22:00:00 16.4 12 Sudeste 18 Sudeste 0 -- -- 85
2019-10-27 21:00:00 16.6 3 Sudoeste 8 Oeste 0 -- -- 85
2019-10-27 20:00:00 17 2 Este 6 Nordeste 0 -- -- 81
2019-10-27 19:00:00 17.2 0 Calma 11 Noroeste 0 -- -- 82
2019-10-27 18:00:00 17.8 8 Norte 12 Norte 0 -- -- 83
2019-10-27 17:00:00 20.1 7 Norte 14 Nordeste 0 -- -- 74
2019-10-27 16:00:00 22.6 4 Nordeste 18 Este 0 -- -- 62
2019-10-27 15:00:00 22.5 9 Sudeste 18 Este 0 -- -- 68
2019-10-27 14:00:00 22.5 13 Este 23 Este 0 -- -- 58
2019-10-27 13:00:00 23 6 Sudeste 17 Sudeste 0 -- -- 59
2019-10-27 12:00:00 23.1 6 Sur 15 Sudeste 0 -- -- 55
2019-10-27 11:00:00 21.3 0 Calma 10 Sudoeste 0 -- -- 58
2019-10-27 10:00:00 18.6 4 Sur 13 Sudeste 0 -- -- 59
2019-10-27 09:00:00 17 9 Sur 16 Sudeste 0 -- -- 64
2019-10-27 08:00:00 15.7 6 Sur 16 Sudeste 0 -- -- 66
2019-10-27 07:00:00 15.3 4 Sur 12 Sudoeste 0 -- -- 65
2019-10-27 06:00:00 14.6 6 Sur 19 Sudoeste 0 -- -- 69
2019-10-27 05:00:00 14 15 Sudoeste 22 Sudoeste 0 -- -- 72
2019-10-27 04:00:00 14.1 13 Sudoeste 19 Sudoeste 0 -- -- 72
2019-10-27 03:00:00 13.5 10 Oeste 18 Sudoeste 0 -- -- 74
2019-10-27 02:00:00 13.3 15 Sudoeste 21 Sudoeste 0 -- -- 78
2019-10-27 01:00:00 13.8 6 Sudoeste 10 Sudoeste 0 -- -- 80
2019-10-27 00:00:00 14.6 10 Sudoeste 17 Oeste 0 -- -- 79
2019-10-26 23:00:00 15.1 9 Oeste 16 Oeste 0 -- -- 83
2019-10-26 22:00:00 15.6 6 Oeste 14 Oeste 0 -- -- 81
2019-10-26 21:00:00 16.9 4 Oeste 7 Sudoeste 0 -- -- 76
2019-10-26 20:00:00 18.2 3 Norte 7 Norte 0 -- -- 64
2019-10-26 19:00:00 19.2 5 Norte 10 Norte 0 -- -- 62
2019-10-26 18:00:00 19.7 6 Norte 18 Norte 0 -- -- 65
2019-10-26 17:00:00 23.1 14 Norte 27 Norte 0 -- -- 54
2019-10-26 16:00:00 27.5 3 Este 10 Sudeste 0 -- -- 46
2019-10-26 15:00:00 26.8 7 Sudeste 9 Sudeste 0 -- -- 48
2019-10-26 14:00:00 26.7 6 Sur 14 Sudeste 0 -- -- 45
2019-10-26 13:00:00 25.2 8 Sudeste 12 Sudeste 0 -- -- 49
2019-10-26 12:00:00 22.7 5 Sur 9 Sur 0 -- -- 56
2019-10-26 11:00:00 21 3 Sudoeste 10 Sudeste 0 -- -- 57
2019-10-26 10:00:00 18.9 7 Sur 16 Sudeste 0 -- -- 56
2019-10-26 09:00:00 16.6 12 Sur 18 Sur 0 -- -- 59
2019-10-26 08:00:00 15.4 8 Sur 18 Sudeste 0 -- -- 63
2019-10-26 07:00:00 14.8 8 Sur 21 Sudeste 0 -- -- 66
2019-10-26 06:00:00 14.5 8 Sur 15 Sudoeste 0 -- -- 67
2019-10-26 05:00:00 12.2 10 Sudoeste 19 Sudeste 0 -- -- 78
2019-10-26 04:00:00 11.9 8 Sudoeste 13 Sudoeste 0 -- -- 89
2019-10-26 03:00:00 11.2 8 Oeste 10 Sudoeste 0 -- -- 94
2019-10-26 02:00:00 11.5 8 Oeste 10 Oeste 0 -- -- 96
2019-10-26 01:00:00 12.1 6 Oeste 9 Oeste 0 -- -- 98
2019-10-26 00:00:00 12.8 3 Oeste 12 Sudeste 0 -- -- 97
2019-10-25 23:00:00 13.8 6 Sudeste 11 Sudeste 0 -- -- 96
2019-10-25 22:00:00 14.3 7 Sudoeste 10 Sudoeste 0 -- -- 96
2019-10-25 21:00:00 15 4 Oeste 6 Oeste 0 -- -- 93
2019-10-25 20:00:00 15.6 5 Nordeste 6 Nordeste 0 -- -- 91
2019-10-25 19:00:00 17.2 4 Nordeste 12 Noroeste 0 -- -- 85
2019-10-25 18:00:00 18.3 8 Noroeste 14 Noroeste 0 -- -- 82
2019-10-25 17:00:00 19 9 Noroeste 18 Noroeste 0 -- -- 81
2019-10-25 16:00:00 18.8 14 Noroeste 19 Nordeste 0 -- -- 79
2019-10-25 15:00:00 19.1 15 Norte 21 Norte 0 -- -- 79
2019-10-25 14:00:00 19.9 8 Nordeste 12 Nordeste 0 -- -- 77
2019-10-25 13:00:00 18.9 6 Norte 9 Nordeste 0 -- -- 75
2019-10-25 12:00:00 17.4 4 Norte 10 Oeste 0 -- -- 78
2019-10-25 11:00:00 15.6 4 Noroeste 6 Noroeste 0 -- -- 85
2019-10-25 10:00:00 12.3 6 Oeste 10 Oeste 0 -- -- 89
2019-10-25 09:00:00 11.7 8 Oeste 12 Oeste 0 -- -- 88
2019-10-25 08:00:00 13.5 2 Nordeste 5 Norte 0 -- -- 85
2019-10-25 07:00:00 13.6 2 Noroeste 13 Sudeste 0 -- -- 84
2019-10-25 06:00:00 13.8 10 Sudeste 17 Sudeste 0 -- -- 86
2019-10-25 05:00:00 12.3 12 Sur 22 Sudeste 0 -- -- 92
2019-10-25 04:00:00 12.8 15 Sudeste 20 Sudeste 0 -- -- 93
2019-10-25 03:00:00 12.7 15 Sudeste 21 Sudeste 0 -- -- 92
2019-10-25 02:00:00 12.9 6 Sur 14 Sur 0 -- -- 92
2019-10-25 01:00:00 13.3 8 Sudeste 20 Sudeste 0 -- -- 93
2019-10-25 00:00:00 13.8 13 Sudeste 20 Sudeste 0 -- -- 92
2019-10-24 23:00:00 14.3 9 Sudeste 14 Sudeste 0 -- -- 91
2019-10-24 22:00:00 14.7 10 Sudeste 14 Sudeste 0 -- -- 90
2019-10-24 21:00:00 15 10 Sur 17 Sudeste 0 -- -- 90
2019-10-24 20:00:00 16 6 Sur 11 Sudoeste 0 -- -- 88
2019-10-24 19:00:00 16.6 6 Oeste 23 Oeste 0 -- -- 87
2019-10-24 18:00:00 17 14 Oeste 28 Noroeste 0 -- -- 84
2019-10-24 17:00:00 17.5 15 Oeste 36 Noroeste 0 -- -- 83
2019-10-24 16:00:00 18.4 22 Noroeste 43 Noroeste 0 -- -- 80
2019-10-24 15:00:00 18.3 8 Oeste 19 Sudoeste 0 -- -- 77
2019-10-24 14:00:00 17.6 9 Sudoeste 28 Sudoeste 0.2 -- -- 85
2019-10-24 13:00:00 13.9 8 Sur 17 Sur 0.2 -- -- 94
2019-10-24 12:00:00 12.4 10 Sur 22 Sudeste 2.2 -- -- 92
2019-10-24 11:00:00 12.5 13 Sur 24 Sudoeste 0 -- -- 91
2019-10-24 10:00:00 12.5 19 Sudoeste 26 Sudoeste 0 -- -- 86
2019-10-24 09:00:00 11.5 9 Sudoeste 23 Sur 0 -- -- 84
2019-10-24 08:00:00 11.3 14 Sudoeste 20 Sudoeste 0 -- -- 85
2019-10-24 07:00:00 10.7 12 Sudoeste 20 Sudoeste 0 -- -- 88
2019-10-24 06:00:00 10.9 12 Sudoeste 21 Sudoeste 0.2 -- -- 89
2019-10-24 05:00:00 10.8 13 Sudoeste 24 Sudoeste 2 -- -- 91
2019-10-24 04:00:00 10.8 17 Sudoeste 26 Sudoeste 1.2 -- -- 91
2019-10-24 03:00:00 10.7 15 Sudoeste 31 Oeste 1.6 -- -- 91
2019-10-24 02:00:00 10.8 19 Sudoeste 35 Sudoeste 1 -- -- 89
2019-10-24 01:00:00 10.7 17 Sudoeste 33 Oeste 1 -- -- 88
2019-10-24 00:00:00 10.7 22 Oeste 41 Oeste 1 -- -- 88
2019-10-23 23:00:00 10.3 20 Oeste 33 Oeste 4.6 -- -- 93
2019-10-23 22:00:00 10.9 17 Oeste 44 Oeste 1.8 -- -- 94
2019-10-23 21:00:00 11.1 28 Oeste 59 Oeste 3.6 -- -- 94
2019-10-23 20:00:00 11.4 36 Oeste 66 Oeste 1.8 -- -- 94
2019-10-23 19:00:00 11.7 32 Oeste 61 Oeste 5.2 -- -- 97
2019-10-23 18:00:00 11.9 36 Oeste 66 Noroeste 4.6 -- -- 99
2019-10-23 17:00:00 12.3 29 Oeste 62 Oeste 1.8 -- -- 99
2019-10-23 16:00:00 13 32 Oeste 51 Oeste 0.8 -- -- 99
2019-10-23 15:00:00 13 27 Oeste 48 Oeste 0.6 -- -- 99
2019-10-23 14:00:00 12.8 28 Oeste 47 Oeste 0.4 -- -- 100
2019-10-23 13:00:00 12.5 19 Oeste 44 Oeste 1.8 -- -- 100
2019-10-23 12:00:00 12.6 20 Oeste 39 Oeste 3 -- -- 100
2019-10-23 11:00:00 14.4 14 Norte 35 Norte 3.8 -- -- 100
2019-10-23 10:00:00 14.2 23 Norte 40 Norte 2.6 -- -- 100
2019-10-23 09:00:00 14.2 23 Norte 37 Norte 4.2 -- -- 100
2019-10-23 08:00:00 14.3 24 Norte 44 Norte 2.6 -- -- 100
2019-10-23 07:00:00 14.3 27 Norte 42 Norte 2.6 -- -- 100
2019-10-23 06:00:00 13.8 26 Norte 41 Norte 3.4 -- -- 100
2019-10-23 05:00:00 13.5 27 Norte 41 Noroeste 8 -- -- 100
2019-10-23 04:00:00 12.8 18 Noroeste 36 Norte 4.8 -- -- 99
2019-10-23 03:00:00 12.8 11 Noroeste 24 Noroeste 5.2 -- -- 99
2019-10-23 02:00:00 11.7 12 Oeste 21 Noroeste 4.6 -- -- 99
2019-10-23 01:00:00 11.3 10 Oeste 19 Oeste 4.2 -- -- 98
2019-10-23 00:00:00 11.3 12 Oeste 20 Oeste 0.2 -- -- 98
2019-10-22 23:00:00 11.4 12 Oeste 18 Oeste 1.6 -- -- 98
2019-10-22 22:00:00 11.6 10 Oeste 15 Oeste 0.4 -- -- 97
2019-10-22 21:00:00 12 4 Sur 20 Este 1 -- -- 95
2019-10-22 20:00:00 12 7 Este 12 Nordeste 2.6 -- -- 96
2019-10-22 19:00:00 12.1 5 Sudoeste 14 Oeste 4 -- -- 95
2019-10-22 18:00:00 12.4 9 Oeste 14 Oeste 0.2 -- -- 95
2019-10-22 17:00:00 12.5 4 Sudoeste 13 Oeste 0.4 -- -- 94
2019-10-22 16:00:00 12.4 9 Sudoeste 13 Sudoeste 0.2 -- -- 94
2019-10-22 15:00:00 11.4 6 Sudoeste 8 Sudoeste 0.4 -- -- 92
2019-10-22 14:00:00 12 3 Oeste 12 Sudoeste 0.4 -- -- 89
2019-10-22 13:00:00 11.3 10 Sudoeste 16 Sudoeste 0 -- -- 90
2019-10-22 12:00:00 9.9 11 Sudoeste 15 Sudoeste 0 -- -- 93
2019-10-22 11:00:00 8.8 7 Sudoeste 17 Sudoeste 0 -- -- 96
2019-10-22 10:00:00 7.2 11 Sudoeste 14 Sudoeste 0 -- -- 96
2019-10-22 09:00:00 7.1 6 Sur 11 Sur 0 -- -- 95
2019-10-22 08:00:00 7.2 8 Sur 13 Sur 0 -- -- 95
2019-10-22 07:00:00 7.5 6 Sur 15 Sur 0 -- -- 95
2019-10-22 06:00:00 7.7 6 Sudoeste 12 Sudeste 0 -- -- 95
2019-10-22 05:00:00 7.8 6 Sur 17 Sudeste 0 -- -- 95
2019-10-22 04:00:00 8.4 8 Sur 13 Sur 0 -- -- 94
2019-10-22 03:00:00 8.5 9 Sur 14 Sudeste 0 -- -- 94
2019-10-22 02:00:00 9.1 7 Sur 13 Sur 0 -- -- 94
2019-10-22 01:00:00 9.3 5 Sur 17 Sudeste 0 -- -- 93
2019-10-22 00:00:00 9.8 8 Sudeste 16 Sudeste 0 -- -- 92
2019-10-21 23:00:00 10.2 9 Sudoeste 14 Sudoeste 0 -- -- 91
2019-10-21 22:00:00 10.3 11 Sudoeste 18 Sudoeste 0 -- -- 89
2019-10-21 21:00:00 11.2 7 Sudoeste 12 Oeste 0 -- -- 86
2019-10-21 20:00:00 12.1 7 Oeste 10 Oeste 0 -- -- 83
2019-10-21 19:00:00 13.2 4 Sudoeste 9 Oeste 0 -- -- 77
2019-10-21 18:00:00 13.8 7 Norte 13 Nordeste 0 -- -- 75
2019-10-21 17:00:00 14.3 12 Nordeste 18 Norte 0 -- -- 71
2019-10-21 16:00:00 15.6 10 Norte 19 Norte 0 -- -- 70
2019-10-21 15:00:00 15.2 11 Norte 15 Norte 0 -- -- 70
2019-10-21 14:00:00 16.2 9 Norte 15 Oeste 0 -- -- 65
2019-10-21 13:00:00 15.9 6 Oeste 22 Oeste 0 -- -- 69
2019-10-21 12:00:00 14.9 7 Oeste 15 Sudoeste 0 -- -- 72
2019-10-21 11:00:00 12 8 Sur 11 Sudoeste 0 -- -- 84
2019-10-21 10:00:00 9.7 8 Sur 17 Sur 0 -- -- 89
2019-10-21 09:00:00 9.1 14 Sur 19 Sudeste 0 -- -- 89
2019-10-21 08:00:00 9 9 Sur 15 Sudoeste 0 -- -- 90
2019-10-21 07:00:00 8.5 13 Sudoeste 19 Sudoeste 0 -- -- 92
2019-10-21 06:00:00 8.4 9 Sur 13 Sur 0 -- -- 91
2019-10-21 05:00:00 8.8 10 Sur 14 Sudoeste 0 -- -- 91
2019-10-21 04:00:00 9 10 Sudoeste 15 Sudoeste 0 -- -- 92
2019-10-21 03:00:00 9 9 Sur 15 Sudoeste 0 -- -- 92
2019-10-21 02:00:00 9.4 10 Sudoeste 17 Sudoeste 0 -- -- 90
2019-10-21 01:00:00 9.8 13 Sudoeste 22 Sudoeste 0 -- -- 90
2019-10-21 00:00:00 10 13 Sudoeste 20 Sudoeste 0.6 -- -- 90
2019-10-20 23:00:00 10.4 12 Sudoeste 19 Oeste 0.2 -- -- 88
2019-10-20 22:00:00 10.6 13 Sudoeste 23 Sudoeste 0.6 -- -- 87
2019-10-20 21:00:00 10.9 9 Sur 16 Oeste 0.4 -- -- 90
2019-10-20 20:00:00 10.8 12 Sudoeste 28 Sudoeste 0 -- -- 91
2019-10-20 19:00:00 10.9 15 Sudoeste 28 Sudoeste 3 -- -- 94
2019-10-20 18:00:00 11.1 17 Sudoeste 30 Sudoeste 0.6 -- -- 94
2019-10-20 17:00:00 11.2 15 Oeste 30 Oeste 2.4 -- -- 93
2019-10-20 16:00:00 11.5 15 Oeste 29 Oeste 0.6 -- -- 91
2019-10-20 15:00:00 11.1 20 Oeste 33 Sudoeste 0.4 -- -- 92
2019-10-20 14:00:00 11 9 Sudoeste 14 Sur 0.6 -- -- 96
2019-10-20 13:00:00 10.7 8 Sudeste 14 Sur 0.4 -- -- 94
2019-10-20 12:00:00 10.4 10 Sudoeste 23 Sudoeste 0.6 -- -- 94
2019-10-20 11:00:00 10 12 Sudoeste 32 Oeste 0.4 -- -- 95
2019-10-20 10:00:00 9.8 18 Oeste 30 Oeste 0 -- -- 95
2019-10-20 09:00:00 10.1 15 Oeste 31 Oeste 0.4 -- -- 99
2019-10-20 08:00:00 10.2 20 Oeste 31 Oeste 2.4 -- -- 99
2019-10-20 07:00:00 10.6 19 Noroeste 33 Oeste 5.8 -- -- 99
2019-10-20 06:00:00 11.1 16 Noroeste 31 Noroeste 10.2 -- -- 99
2019-10-20 05:00:00 12 11 Sudoeste 19 Sudoeste 2.6 -- -- 99
2019-10-20 04:00:00 11.9 4 Norte 25 Norte 2.8 -- -- 99
2019-10-20 03:00:00 12.2 11 Norte 23 Nordeste 3.8 -- -- 99
2019-10-20 02:00:00 11.9 11 Oeste 19 Oeste 1.6 -- -- 99
2019-10-20 01:00:00 12.1 11 Oeste 18 Oeste 0.2 -- -- 99
2019-10-20 00:00:00 12.2 5 Oeste 10 Oeste 1.8 -- -- 99
2019-10-19 23:00:00 12.3 7 Oeste 16 Noroeste 1.6 -- -- 99
2019-10-19 22:00:00 12.4 8 Oeste 12 Sudoeste 1.4 -- -- 98
2019-10-19 21:00:00 12.5 10 Sudoeste 14 Sudoeste 2.4 -- -- 98
2019-10-19 20:00:00 12.7 8 Oeste 18 Norte 4.8 -- -- 98
2019-10-19 19:00:00 12.8 6 Noroeste 24 Norte 4.4 -- -- 98
2019-10-19 18:00:00 13.8 6 Norte 10 Noroeste 0.4 -- -- 96
2019-10-19 17:00:00 14 6 Oeste 10 Nordeste 1.2 -- -- 96
2019-10-19 16:00:00 13.9 9 Norte 19 Nordeste 0 -- -- 96
2019-10-19 15:00:00 14 13 Nordeste 19 Norte 0 -- -- 97
2019-10-19 14:00:00 14.5 14 Norte 19 Norte 1.2 -- -- 96
2019-10-19 13:00:00 15.2 4 Nordeste 6 Nordeste 0.2 -- -- 94
2019-10-19 12:00:00 14.7 0 Calma 8 Sudoeste 1.2 -- -- 94
2019-10-19 11:00:00 14.6 7 Sudoeste 8 Sudoeste 0 -- -- 92
2019-10-19 10:00:00 14.7 0 Calma 8 Sudeste 0 -- -- 92
2019-10-19 09:00:00 14 6 Sudoeste 13 Oeste 0 -- -- 92
2019-10-19 08:00:00 13.5 9 Oeste 17 Sudoeste 0 -- -- 92
2019-10-19 07:00:00 13.5 11 Sudoeste 16 Sudoeste 0 -- -- 93
2019-10-19 06:00:00 13.3 5 Norte 12 Oeste 0 -- -- 91
2019-10-19 05:00:00 13.1 6 Sudoeste 10 Sur 0 -- -- 92
2019-10-19 04:00:00 13.3 6 Sur 12 Sudoeste 0.4 -- -- 92
2019-10-19 03:00:00 13.4 6 Sudoeste 9 Sudoeste 0 -- -- 91
2019-10-19 02:00:00 13.7 3 Noroeste 13 Sudeste 0 -- -- 88
2019-10-19 01:00:00 13.5 10 Sur 14 Sur 0.2 -- -- 90
2019-10-19 00:00:00 14.2 8 Sur 10 Sudeste 0.2 -- -- 85
2019-10-18 23:00:00 14.2 5 Sudeste 11 Sur 0 -- -- 84
2019-10-18 22:00:00 15 3 Sudeste 6 Sur 0 -- -- 76
2019-10-18 21:00:00 15.3 5 Sudeste 13 Sudeste 0 -- -- 74
2019-10-18 20:00:00 15.4 10 Sudeste 14 Sudeste 0 -- -- 75
2019-10-18 19:00:00 15.9 6 Sudeste 13 Este 0 -- -- 74
2019-10-18 18:00:00 16.2 6 Nordeste 16 Nordeste 0 -- -- 73
2019-10-18 17:00:00 17.1 10 Nordeste 21 Nordeste 0 -- -- 70
2019-10-18 16:00:00 17.6 12 Nordeste 18 Este 0 -- -- 70
2019-10-18 15:00:00 18.9 5 Nordeste 10 Sudeste 0 -- -- 63
2019-10-18 14:00:00 19 4 Este 11 Este 0 -- -- 62
2019-10-18 13:00:00 18.2 6 Norte 14 Oeste 0 -- -- 63
2019-10-18 12:00:00 17.9 4 Sur 8 Sudeste 0 -- -- 75
2019-10-18 11:00:00 15.7 7 Sudeste 14 Sudeste 0 -- -- 85
2019-10-18 10:00:00 15 6 Sur 12 Sudoeste 0 -- -- 87
2019-10-18 09:00:00 14.7 8 Sur 11 Sudoeste 0 -- -- 89
2019-10-18 08:00:00 14.7 9 Sudoeste 12 Sudoeste 0 -- -- 92
2019-10-18 07:00:00 14.6 8 Sur 12 Sudeste 0 -- -- 94
2019-10-18 06:00:00 14.6 6 Sur 10 Sudoeste 0 -- -- 94
2019-10-18 05:00:00 14.7 5 Sur 10 Sudoeste 0 -- -- 93
2019-10-18 04:00:00 14.9 9 Sudoeste 14 Sudoeste 0 -- -- 92
2019-10-18 03:00:00 14.9 10 Sudoeste 14 Sudoeste 0 -- -- 94
2019-10-18 02:00:00 15.2 3 Oeste 9 Oeste 0 -- -- 93
2019-10-18 01:00:00 15.1 5 Sur 6 Sur 0 -- -- 93
2019-10-18 00:00:00 15.2 5 Sur 8 Sur 0 -- -- 93
2019-10-17 23:00:00 15.3 3 Sudeste 9 Sudeste 0 -- -- 92
2019-10-17 22:00:00 15.3 7 Sudeste 11 Sudeste 0 -- -- 93
2019-10-17 21:00:00 15.3 8 Sudeste 14 Sudeste 0 -- -- 93
2019-10-17 20:00:00 15.5 8 Sudeste 12 Sudeste 0 -- -- 93
2019-10-17 19:00:00 15.7 6 Sur 10 Sudeste 0 -- -- 92
2019-10-17 18:00:00 16.1 4 Sur 10 Oeste 0 -- -- 90
2019-10-17 17:00:00 16.1 4 Noroeste 15 Oeste 0 -- -- 89
2019-10-17 16:00:00 16.3 10 Noroeste 32 Noroeste 0 -- -- 89
2019-10-17 15:00:00 16.3 22 Noroeste 34 Norte 0 -- -- 90
2019-10-17 14:00:00 19.2 20 Norte 28 Norte 0 -- -- 81
2019-10-17 13:00:00 21.6 8 Nordeste 13 Norte 0 -- -- 69
2019-10-17 12:00:00 20.3 4 Nordeste 8 Nordeste 0 -- -- 74
2019-10-17 11:00:00 19.2 3 Nordeste 9 Sudeste 0 -- -- 80
2019-10-17 10:00:00 17.4 6 Sur 10 Sur 0 -- -- 89
2019-10-17 09:00:00 15.6 9 Sudoeste 13 Sudoeste 0 -- -- 92
2019-10-17 08:00:00 15.4 9 Oeste 26 Oeste 0 -- -- 88
2019-10-17 07:00:00 16.6 18 Sudoeste 30 Sudoeste 0 -- -- 75
2019-10-17 06:00:00 17.4 12 Sudoeste 25 Sudoeste 0 -- -- 73
2019-10-17 05:00:00 16.5 11 Sur 40 Sudoeste 1 -- -- 80
2019-10-17 04:00:00 16.2 6 Sur 15 Sudoeste 1.4 -- -- 84
2019-10-17 03:00:00 17.4 17 Oeste 32 Sudoeste 0 -- -- 76
2019-10-17 02:00:00 18.5 16 Sudoeste 43 Sudoeste 0 -- -- 67
2019-10-17 01:00:00 19.3 28 Sudoeste 43 Sur 0 -- -- 62
2019-10-17 00:00:00 19 12 Sudoeste 41 Sudoeste 0 -- -- 63
2019-10-16 23:00:00 17.8 11 Sur 43 Sur 0.2 -- -- 71
2019-10-16 22:00:00 18.5 18 Sur 35 Sudoeste 0 -- -- 67
2019-10-16 21:00:00 17.3 15 Sur 36 Sudoeste 0.2 -- -- 73
2019-10-16 20:00:00 17.5 18 Sudoeste 34 Sudoeste 0.4 -- -- 73
2019-10-16 19:00:00 19.9 18 Sudoeste 40 Sur 0 -- -- 57
2019-10-16 18:00:00 21.6 18 Sur 44 Sur 0 -- -- 52
2019-10-16 17:00:00 22.7 14 Sur 36 Sur 0 -- -- 50
2019-10-16 16:00:00 21.1 12 Sur 32 Sur 0 -- -- 55
2019-10-16 15:00:00 22.7 7 Sudeste 34 Sur 0 -- -- 54
2019-10-16 14:00:00 23.3 17 Sur 34 Sur 0 -- -- 47
2019-10-16 13:00:00 20 21 Sur 52 Sur 0 -- -- 55
2019-10-16 12:00:00 17.7 31 Sur 46 Sur 0.2 -- -- 61
2019-10-16 11:00:00 16.6 17 Sudoeste 33 Sudoeste 0 -- -- 68
2019-10-16 10:00:00 17.2 5 Sur 26 Sudoeste 0 -- -- 66
2019-10-16 09:00:00 17.8 13 Sur 23 Sudoeste 0 -- -- 58
2019-10-16 08:00:00 17.4 7 Sudeste 19 Sur 0 -- -- 60
2019-10-16 07:00:00 17.4 6 Sudeste 16 Sur 0 -- -- 58
2019-10-16 06:00:00 17.8 8 Sur 21 Sudoeste 0 -- -- 57
2019-10-16 05:00:00 17.1 4 Este 20 Este 0 -- -- 60
2019-10-16 04:00:00 16.9 6 Este 39 Sudoeste 0 -- -- 61
2019-10-16 03:00:00 17.7 19 Sudoeste 33 Sudoeste 0 -- -- 55
2019-10-16 02:00:00 17.5 19 Sudoeste 33 Sudoeste 0 -- -- 55
2019-10-16 01:00:00 17.6 13 Sur 26 Sudeste 0 -- -- 51
2019-10-16 00:00:00 16.3 8 Sur 15 Sur 0 -- -- 60
2019-10-15 23:00:00 16.5 12 Sudoeste 24 Sudoeste 0 -- -- 60
2019-10-15 22:00:00 16.9 14 Sudoeste 24 Sudoeste 0 -- -- 58
2019-10-15 21:00:00 17.5 14 Sudoeste 27 Sudoeste 0 -- -- 54
2019-10-15 20:00:00 17.8 16 Sudoeste 38 Sudoeste 0 -- -- 51
2019-10-15 19:00:00 18.5 19 Sudoeste 30 Sur 0 -- -- 50
2019-10-15 18:00:00 20 8 Sudeste 28 Sur 0 -- -- 49
2019-10-15 17:00:00 20 13 Sur 22 Sur 0 -- -- 45
2019-10-15 16:00:00 20.1 10 Sur 17 Sur 0 -- -- 44
2019-10-15 15:00:00 20.8 8 Sur 18 Sudoeste 0 -- -- 43
2019-10-15 14:00:00 20.9 7 Sudoeste 18 Sudoeste 0 -- -- 41
2019-10-15 13:00:00 19.2 10 Sudoeste 18 Sudoeste 0 -- -- 46
2019-10-15 12:00:00 17.9 9 Sudoeste 17 Sudoeste 0 -- -- 52
2019-10-15 11:00:00 14.4 6 Sur 14 Sudoeste 0 -- -- 66
2019-10-15 10:00:00 11.8 10 Sur 20 Sudoeste 0 -- -- 72
2019-10-15 09:00:00 10.6 8 Sudoeste 19 Sudoeste 0 -- -- 74
2019-10-15 08:00:00 10.8 12 Sudoeste 22 Sudoeste 0 -- -- 75
2019-10-15 07:00:00 10.3 15 Sudoeste 21 Sudoeste 0 -- -- 78
2019-10-15 06:00:00 10.4 14 Sudoeste 23 Sudoeste 0 -- -- 80
2019-10-15 05:00:00 10.4 14 Sudoeste 20 Sudoeste 0 -- -- 80
2019-10-15 04:00:00 10.6 14 Sudoeste 19 Sudoeste 0 -- -- 79
2019-10-15 03:00:00 11.3 12 Sudoeste 17 Sudoeste 0 -- -- 72
2019-10-15 02:00:00 11.8 10 Oeste 24 Oeste 0 -- -- 72
2019-10-15 01:00:00 12 14 Oeste 31 Oeste 0 -- -- 69
2019-10-15 00:00:00 12.5 14 Oeste 28 Sudoeste 0 -- -- 70
2019-10-14 23:00:00 11.9 10 Sudoeste 22 Oeste 0 -- -- 79
2019-10-14 22:00:00 12.5 13 Oeste 24 Oeste 0 -- -- 83
2019-10-14 21:00:00 12 9 Sudoeste 14 Sudoeste 0.6 -- -- 92
2019-10-14 20:00:00 11.7 6 Sudoeste 37 Oeste 1.6 -- -- 92
2019-10-14 19:00:00 12.7 22 Oeste 51 Noroeste 1.2 -- -- 88
2019-10-14 18:00:00 15.8 13 Noroeste 25 Noroeste 0 -- -- 80
2019-10-14 17:00:00 16.8 14 Norte 24 Nordeste 0 -- -- 78
2019-10-14 16:00:00 18.1 13 Norte 23 Norte 0 -- -- 78
2019-10-14 15:00:00 19 8 Nordeste 14 Este 0 -- -- 72
2019-10-14 14:00:00 18.1 6 Nordeste 13 Nordeste 0 -- -- 74
2019-10-14 13:00:00 17.1 9 Sudeste 27 Oeste 0.4 -- -- 82
2019-10-14 12:00:00 15.4 10 Noroeste 14 Noroeste 0 -- -- 84
2019-10-14 11:00:00 15.6 5 Sudoeste 13 Oeste 0 -- -- 86
2019-10-14 10:00:00 14.2 5 Sudoeste 14 Sudoeste 1 -- -- 92
2019-10-14 09:00:00 14.2 11 Sudoeste 20 Sudoeste 0 -- -- 95
2019-10-14 08:00:00 14.3 7 Sudoeste 27 Oeste 0.4 -- -- 96
2019-10-14 07:00:00 14.7 9 Oeste 49 Oeste 0.2 -- -- 95
2019-10-14 06:00:00 15.3 26 Oeste 54 Oeste 0 -- -- 94
2019-10-14 05:00:00 17.1 18 Oeste 32 Oeste 0 -- -- 89
2019-10-14 04:00:00 21.6 18 Sur 46 Sur 0 -- -- 53
2019-10-14 03:00:00 17.1 8 Oeste 17 Sudoeste 0 -- -- 83
2019-10-14 02:00:00 16.8 9 Sur 18 Oeste 0 -- -- 91
2019-10-14 01:00:00 16 7 Sudoeste 14 Sudoeste 0 -- -- 96
2019-10-14 00:00:00 16.6 5 Sudoeste 6 Oeste 0 -- -- 96